Time;durP1;ratioP1;P1;durP2;ratioP2;P2;SDS_P1;SDS_P2;PMS_P1;PMS_P2;Temp;Humidity;BMP_temperature;BMP_pressure;BME280_temperature;BME280_humidity;BME280_pressure;Samples;Min_cycle;Max_cycle;Signal;HPM_P1;HPM_P2
2021/10/20 00:00:21;;;;;;;6.53;4.25;;;15.30;99.90;;;13.38;100.00;100172.53;5012415;28;20056;-87
2021/10/20 00:02:49;;;;;;;7.00;4.10;;;15.30;99.90;;;13.37;100.00;100161.84;5012457;28;20401;-88
2021/10/20 00:05:18;;;;;;;7.13;4.43;;;15.30;99.90;;;13.38;100.00;100158.03;5012349;28;20060;-87
2021/10/20 00:07:47;;;;;;;7.30;4.40;;;15.30;99.90;;;13.37;100.00;100157.22;5012154;28;20042;-87
2021/10/20 00:10:17;;;;;;;7.80;3.72;;;15.30;99.90;;;13.38;100.00;100152.56;5012372;28;20124;-87
2021/10/20 00:12:45;;;;;;;8.50;4.10;;;15.30;99.90;;;13.41;100.00;100149.44;5012220;28;20065;-87
2021/10/20 00:15:17;;;;;;;8.32;4.20;;;15.30;99.90;;;13.38;100.00;100142.47;5012174;28;20041;-87
2021/10/20 00:17:45;;;;;;;8.00;4.47;;;15.30;99.90;;;13.38;100.00;100134.28;5012037;28;20521;-87
2021/10/20 00:20:16;;;;;;;7.90;3.55;;;15.30;99.90;;;13.35;100.00;100133.88;5010925;28;20053;-87
2021/10/20 00:22:46;;;;;;;7.40;4.15;;;15.30;99.90;;;13.34;100.00;100133.00;5012169;28;20050;-87
2021/10/20 00:25:14;;;;;;;7.85;4.50;;;15.30;99.90;;;13.35;100.00;100131.16;5011607;28;20081;-87
2021/10/20 00:27:42;;;;;;;8.13;4.28;;;15.30;99.90;;;13.35;100.00;100131.16;5011900;28;20089;-87
2021/10/20 00:30:10;;;;;;;9.73;4.07;;;15.20;99.90;;;13.39;100.00;100135.13;5027233;28;20413;-88
2021/10/20 00:32:37;;;;;;;6.70;3.97;;;15.20;99.90;;;13.38;100.00;100138.91;5011643;28;20057;-87
2021/10/20 00:35:07;;;;;;;9.57;4.18;;;15.20;99.90;;;13.34;100.00;100124.81;5011692;28;20042;-87
2021/10/20 00:37:34;;;;;;;9.23;4.85;;;15.20;99.90;;;13.34;100.00;100122.09;5009947;28;20050;-88
2021/10/20 00:40:04;;;;;;;6.80;4.47;;;15.20;99.90;;;13.33;100.00;100116.81;5011784;28;20093;-87
2021/10/20 00:42:32;;;;;;;8.45;4.35;;;15.20;99.90;;;13.30;100.00;100118.94;5011952;28;20068;-88
2021/10/20 00:45:02;;;;;;;7.22;4.20;;;15.20;99.90;;;13.33;100.00;100112.22;5011746;28;20053;-87
2021/10/20 00:47:30;;;;;;;7.72;4.35;;;15.20;99.90;;;13.34;100.00;100111.16;5026610;28;20046;-87
2021/10/20 00:49:57;;;;;;;8.00;4.50;;;15.20;99.90;;;13.33;100.00;100101.28;5011633;28;20046;-87
2021/10/20 00:52:27;;;;;;;8.65;4.93;;;15.20;99.90;;;13.30;100.00;100105.25;5026676;28;20054;-87
2021/10/20 00:54:56;;;;;;;8.27;4.22;;;15.20;99.90;;;13.29;100.00;100103.56;5010114;28;20042;-87
2021/10/20 00:57:27;;;;;;;6.13;3.83;;;15.20;99.90;;;13.28;100.00;100096.41;4996275;28;20050;-87
2021/10/20 00:59:57;;;;;;;8.55;4.40;;;15.20;99.90;;;13.25;100.00;100096.84;4992027;28;20141;-87
2021/10/20 01:02:24;;;;;;;7.18;4.18;;;15.20;99.90;;;13.24;100.00;100086.97;4989878;28;20053;-87
2021/10/20 01:04:52;;;;;;;12.15;3.80;;;15.20;99.90;;;13.26;100.00;100090.31;4991628;28;20402;-87
2021/10/20 01:07:22;;;;;;;9.50;4.32;;;15.20;99.90;;;13.27;100.00;100088.44;4990069;28;20415;-87
2021/10/20 01:09:50;;;;;;;6.32;3.80;;;15.20;99.90;;;13.30;100.00;100086.13;4996131;28;20038;-86
2021/10/20 01:12:18;;;;;;;8.02;4.40;;;15.20;99.90;;;13.30;100.00;100079.84;5011265;28;20414;-87
2021/10/20 01:14:47;;;;;;;9.85;4.28;;;15.20;99.90;;;13.27;100.00;100072.88;5026268;28;20072;-86
2021/10/20 01:17:14;;;;;;;7.72;4.40;;;15.20;99.90;;;13.25;100.00;100068.66;5011114;28;20414;-87
2021/10/20 01:19:43;;;;;;;8.57;4.65;;;15.20;99.90;;;13.25;100.00;100066.78;5010879;28;20053;-87
2021/10/20 01:22:13;;;;;;;8.25;4.43;;;15.20;99.90;;;13.25;100.00;100069.53;5011127;28;20069;-87
2021/10/20 01:24:40;;;;;;;10.38;4.40;;;15.20;99.90;;;13.24;100.00;100059.63;5010802;28;20739;-87
2021/10/20 01:27:09;;;;;;;6.88;4.28;;;15.20;99.90;;;13.25;100.00;100053.13;5011018;28;20506;-87
2021/10/20 01:29:36;;;;;;;8.80;4.47;;;15.20;99.90;;;13.25;100.00;100041.34;5010662;28;20391;-87
2021/10/20 01:32:06;;;;;;;8.77;4.35;;;15.20;99.90;;;13.23;100.00;100044.31;5010901;28;20049;-87
2021/10/20 01:34:34;;;;;;;7.80;4.15;;;15.20;99.90;;;13.21;100.00;100034.63;5010779;28;20455;-87
2021/10/20 01:37:04;;;;;;;6.90;4.22;;;15.20;99.90;;;13.20;100.00;100033.78;5010697;28;20064;-87
2021/10/20 01:39:34;;;;;;;7.50;4.30;;;15.10;99.90;;;13.17;100.00;100034.22;5010425;28;20042;-87
2021/10/20 01:42:01;;;;;;;7.80;3.67;;;15.10;99.90;;;13.15;100.00;100036.31;5010666;28;20049;-87
2021/10/20 01:44:28;;;;;;;11.43;4.82;;;15.10;99.90;;;13.15;100.00;100025.38;5025613;28;20478;-87
2021/10/20 01:46:56;;;;;;;6.80;4.03;;;15.10;99.90;;;13.17;100.00;100027.91;5010540;28;20502;-87
2021/10/20 01:49:24;;;;;;;10.18;4.35;;;15.10;99.90;;;13.19;100.00;100032.09;5010259;28;20096;-87
2021/10/20 01:51:51;;;;;;;5.55;3.67;;;15.10;99.90;;;13.23;100.00;100025.19;5009081;28;20061;-87
2021/10/20 01:54:18;;;;;;;9.57;4.97;;;15.10;99.90;;;13.24;100.00;100024.13;5010398;28;20049;-87
2021/10/20 01:56:47;;;;;;;9.50;3.85;;;15.10;99.90;;;13.24;100.00;100013.19;5010376;28;20045;-87
2021/10/20 01:59:15;;;;;;;6.93;3.97;;;15.10;99.90;;;13.25;100.00;100022.22;5010121;28;20046;-87
2021/10/20 02:01:42;;;;;;;7.78;3.45;;;15.10;99.90;;;13.26;100.00;100026.63;5010399;28;20049;-87
2021/10/20 02:04:11;;;;;;;10.20;4.47;;;15.10;99.90;;;13.20;100.00;100017.41;5008805;28;20475;-87
2021/10/20 02:06:41;;;;;;;6.60;4.25;;;15.10;99.90;;;13.20;100.00;100006.47;5010270;28;20157;-87
2021/10/20 02:09:09;;;;;;;9.90;3.92;;;15.10;99.90;;;13.21;100.00;100010.03;5008455;28;20495;-87
2021/10/20 02:11:38;;;;;;;7.65;4.32;;;15.10;99.90;;;13.23;100.00;100006.06;5008637;28;20042;-87
2021/10/20 02:14:08;;;;;;;8.55;4.00;;;15.10;99.90;;;13.25;100.00;100008.53;5009241;28;20057;-87
2021/10/20 02:16:36;;;;;;;7.07;3.80;;;15.10;99.90;;;13.24;100.00;100002.25;5009880;28;20506;-87
2021/10/20 02:19:08;;;;;;;7.68;3.58;;;15.10;99.90;;;13.26;100.00;100011.06;5009756;28;20664;-87
2021/10/20 02:21:36;;;;;;;10.02;4.38;;;15.10;99.90;;;13.29;100.00;100004.34;5009555;28;20050;-87
2021/10/20 02:24:03;;;;;;;7.60;4.38;;;15.10;99.90;;;13.23;100.00;100003.31;5009789;28;20496;-87
2021/10/20 02:26:31;;;;;;;7.75;4.40;;;15.10;99.90;;;13.21;100.00;100002.69;5009851;28;20054;-87
2021/10/20 02:28:58;;;;;;;9.65;4.20;;;15.10;99.90;;;13.20;100.00;99997.44;5009579;28;20407;-87
2021/10/20 02:31:26;;;;;;;7.63;4.28;;;15.10;99.90;;;13.19;100.00;99985.66;5009817;28;20503;-86
2021/10/20 02:33:54;;;;;;;9.15;4.45;;;15.10;99.90;;;13.20;100.00;99994.72;5009554;28;20045;-87
2021/10/20 02:36:21;;;;;;;8.35;4.35;;;15.10;99.90;;;13.19;100.00;99974.72;5009540;28;20057;-87
2021/10/20 02:38:49;;;;;;;6.63;3.88;;;15.10;99.90;;;13.20;100.00;99978.31;5008031;28;20564;-87
2021/10/20 02:41:16;;;;;;;8.07;4.55;;;15.10;99.90;;;13.18;100.00;99970.31;5008320;28;20406;-87
2021/10/20 02:43:43;;;;;;;9.07;4.30;;;15.10;99.90;;;13.18;100.00;99964.88;5009532;28;20431;-87
2021/10/20 02:46:10;;;;;;;9.45;5.10;;;15.10;99.90;;;13.17;100.00;99960.44;5024701;28;20288;-87
2021/10/20 02:48:39;;;;;;;9.43;3.92;;;15.10;99.90;;;13.17;100.00;99965.91;5009187;28;20096;-87
2021/10/20 02:51:07;;;;;;;7.65;4.70;;;15.10;99.90;;;13.20;100.00;99961.91;5009298;28;20068;-87
2021/10/20 02:53:34;;;;;;;9.57;5.18;;;15.10;99.90;;;13.18;100.00;99951.19;5024366;28;20588;-87
2021/10/20 02:56:02;;;;;;;8.10;4.22;;;15.10;99.90;;;13.16;100.00;99950.59;5024439;28;20046;-87
2021/10/20 02:58:29;;;;;;;7.82;4.22;;;15.10;99.90;;;13.16;100.00;99950.59;5009091;28;20042;-87
2021/10/20 03:00:56;;;;;;;10.50;4.40;;;15.10;99.90;;;13.18;100.00;99948.47;5009502;28;20121;-87
2021/10/20 03:03:23;;;;;;;7.15;4.55;;;15.10;99.90;;;13.21;100.00;99953.50;4999826;28;20078;-87
2021/10/20 03:05:52;;;;;;;10.05;4.25;;;15.10;99.90;;;13.24;100.00;99939.41;4989785;28;20450;-87
2021/10/20 03:08:19;;;;;;;9.52;4.60;;;15.00;99.90;;;13.29;100.00;99934.13;4989573;28;20084;-87
2021/10/20 03:10:47;;;;;;;8.88;4.07;;;15.10;99.90;;;13.28;100.00;99939.81;4989810;28;20125;-87
2021/10/20 03:13:14;;;;;;;9.82;4.43;;;15.10;99.90;;;13.29;100.00;99928.66;4989724;28;20510;-87
2021/10/20 03:15:41;;;;;;;9.05;4.70;;;15.10;99.90;;;13.27;100.00;99930.78;5003332;28;20149;-87
2021/10/20 03:18:09;;;;;;;8.10;4.50;;;15.10;99.90;;;13.25;100.00;99938.34;5008833;28;20052;-87
2021/10/20 03:20:36;;;;;;;10.95;4.63;;;15.10;99.90;;;13.24;100.00;99931.19;5009200;28;20084;-87
2021/10/20 03:23:05;;;;;;;8.80;4.75;;;15.10;99.90;;;13.23;100.00;99928.69;5009119;28;20185;-87
2021/10/20 03:25:32;;;;;;;9.90;5.45;;;15.10;99.90;;;13.25;100.00;99924.69;5011272;28;20204;-87
2021/10/20 03:27:59;;;;;;;7.57;4.72;;;15.10;99.90;;;13.25;100.00;99924.69;5028025;28;20081;-87
2021/10/20 03:30:27;;;;;;;9.35;4.90;;;15.10;99.90;;;13.25;100.00;99924.69;5011682;28;20053;-87
2021/10/20 03:32:54;;;;;;;8.65;4.07;;;15.10;99.90;;;13.26;100.00;99934.56;5028193;28;20465;-87
2021/10/20 03:35:21;;;;;;;7.50;4.60;;;15.10;99.90;;;13.25;100.00;99924.69;5013028;28;20056;-87
2021/10/20 03:37:48;;;;;;;9.93;4.82;;;15.10;99.90;;;13.27;100.00;99929.94;5011355;28;20056;-86
2021/10/20 03:40:17;;;;;;;7.40;4.30;;;15.10;99.90;;;13.31;100.00;99925.75;5013033;28;20092;-87
2021/10/20 03:42:45;;;;;;;6.78;4.45;;;15.10;99.90;;;13.32;100.00;99934.78;5012822;28;20129;-87
2021/10/20 03:45:12;;;;;;;9.18;4.40;;;15.10;99.90;;;13.34;100.00;99924.47;5012823;28;20143;-87
2021/10/20 03:47:40;;;;;;;6.47;4.22;;;15.10;99.90;;;13.35;100.00;99923.44;5012586;28;20129;-87
2021/10/20 03:50:08;;;;;;;10.10;4.95;;;15.10;99.90;;;13.36;100.00;99919.63;5028001;28;20084;-86
2021/10/20 03:52:36;;;;;;;9.40;4.53;;;15.10;99.90;;;13.37;100.00;99922.16;5012675;28;20069;-87
2021/10/20 03:55:04;;;;;;;9.20;4.63;;;15.10;99.90;;;13.40;100.00;99916.25;5012607;28;20142;-87
2021/10/20 03:57:36;;;;;;;9.05;4.43;;;15.20;99.90;;;13.43;100.00;99914.97;5012219;28;20065;-87
2021/10/20 04:00:07;;;;;;;9.07;4.57;;;15.20;99.80;;;13.45;100.00;99908.22;5012606;28;20037;-87
2021/10/20 04:02:42;;;;;;;9.73;4.75;;;15.20;99.90;;;13.44;100.00;99916.63;5012581;28;20116;-87
2021/10/20 04:05:10;;;;;;;9.40;4.57;;;15.20;99.90;;;13.42;100.00;99911.41;5011145;28;20060;-87
2021/10/20 04:07:40;;;;;;;8.63;4.45;;;15.20;99.90;;;13.43;100.00;99912.25;5012106;28;20072;-87
2021/10/20 04:10:11;;;;;;;9.68;4.72;;;15.20;99.90;;;13.45;100.00;99910.94;5012235;28;20049;-87
2021/10/20 04:12:40;;;;;;;6.95;4.20;;;15.20;99.90;;;13.45;100.00;99901.91;5011054;28;20134;-87
2021/10/20 04:15:09;;;;;;;8.02;4.30;;;15.20;99.90;;;13.43;100.00;99895.84;5027370;28;20073;-87
2021/10/20 04:17:38;;;;;;;10.27;4.38;;;15.20;99.90;;;13.45;100.00;99893.72;5010735;28;20072;-87
2021/10/20 04:20:08;;;;;;;8.43;4.43;;;15.20;99.90;;;13.45;100.00;99888.25;5012168;28;20103;-87
2021/10/20 04:22:37;;;;;;;8.50;4.47;;;15.20;99.90;;;13.45;100.00;99880.06;5012186;28;20356;-87
2021/10/20 04:25:06;;;;;;;7.20;4.10;;;15.20;99.60;;;13.45;100.00;99871.84;5010589;28;20077;-87
2021/10/20 04:27:34;;;;;;;7.38;4.72;;;15.30;99.80;;;13.47;100.00;99877.94;5011782;28;20069;-87
2021/10/20 04:30:04;;;;;;;9.30;4.00;;;15.30;99.90;;;13.43;100.00;99880.25;5012089;28;20050;-87
2021/10/20 04:32:31;;;;;;;7.60;4.07;;;15.30;99.90;;;13.42;100.00;99875.00;5027078;28;20053;-87
2021/10/20 04:35:00;;;;;;;7.65;4.20;;;15.30;99.80;;;13.43;100.00;99865.78;5026506;28;20160;-87
2021/10/20 04:37:28;;;;;;;7.35;4.45;;;15.30;99.20;;;13.40;100.00;99869.78;5009839;28;20060;-87
2021/10/20 04:39:57;;;;;;;9.77;4.65;;;15.30;99.90;;;13.38;100.00;99866.41;5027150;28;20058;-87
2021/10/20 04:42:26;;;;;;;8.55;4.38;;;15.30;99.70;;;13.36;100.00;99856.75;5011896;28;20528;-87
2021/10/20 04:44:54;;;;;;;9.80;4.85;;;15.30;99.80;;;13.33;100.00;99863.53;5011710;28;20202;-87
2021/10/20 04:47:23;;;;;;;8.18;5.03;;;15.30;99.90;;;13.34;100.00;99865.19;5011680;28;20042;-87
2021/10/20 04:49:51;;;;;;;8.45;4.40;;;15.20;99.80;;;13.33;100.00;99849.00;5026658;28;20149;-87
2021/10/20 04:52:22;;;;;;;7.95;4.55;;;15.20;99.80;;;13.33;100.00;99851.72;5011871;28;20128;-87
2021/10/20 04:54:49;;;;;;;;;;;15.20;99.40;;;13.30;100.00;99850.28;5008936;28;20498;-87
2021/10/20 04:57:16;;;;;;;8.18;4.65;;;15.20;99.80;;;13.29;100.00;99849.41;5011463;28;20467;-87
2021/10/20 04:59:44;;;;;;;10.15;4.75;;;15.20;99.80;;;13.29;100.00;99845.84;5009909;28;20054;-87
2021/10/20 05:02:11;;;;;;;12.55;4.30;;;15.20;99.60;;;13.32;100.00;99841.88;5009920;28;20552;-87
2021/10/20 05:04:40;;;;;;;7.78;4.43;;;15.20;99.40;;;13.34;100.00;99837.00;5009842;28;20050;-87
2021/10/20 05:07:07;;;;;;;8.45;4.75;;;15.20;99.50;;;13.33;100.00;99836.19;5010013;28;20502;-87
2021/10/20 05:09:34;;;;;;;7.35;4.65;;;15.20;99.30;;;13.35;100.00;99830.50;5011065;28;20062;-87
2021/10/20 05:12:02;;;;;;;7.40;4.22;;;15.20;99.60;;;13.37;100.00;99842.06;5009938;28;20136;-87
2021/10/20 05:14:29;;;;;;;8.27;4.68;;;15.20;99.50;;;13.37;100.00;99825.66;5009389;28;20037;-87
2021/10/20 05:16:56;;;;;;;10.27;4.53;;;15.20;99.40;;;13.36;100.00;99818.50;5011049;28;20048;-87
2021/10/20 05:19:24;;;;;;;7.90;4.78;;;15.20;99.20;;;13.37;100.00;99820.19;5009453;28;20089;-87
2021/10/20 05:21:52;;;;;;;7.07;4.55;;;15.20;99.50;;;13.36;100.00;99829.44;5009809;28;20111;-87
2021/10/20 05:24:20;;;;;;;8.95;4.90;;;15.20;99.50;;;13.37;100.00;99815.56;5025984;28;20076;-87
2021/10/20 05:26:50;;;;;;;6.55;4.13;;;15.20;99.30;;;13.40;100.00;99808.81;5026075;28;20050;-87
2021/10/20 05:29:17;;;;;;;8.10;4.57;;;15.20;99.20;;;13.40;100.00;99815.13;5010662;28;20160;-87
2021/10/20 05:31:45;;;;;;;8.45;4.55;;;15.20;99.20;;;13.41;100.00;99810.50;5010947;28;20398;-87
2021/10/20 05:34:12;;;;;;;11.20;4.80;;;15.20;99.20;;;13.40;100.00;99815.13;5025823;28;20138;-87
2021/10/20 05:36:39;;;;;;;9.55;4.68;;;15.20;98.90;;;13.41;100.00;99808.59;5009291;28;20073;-87
2021/10/20 05:39:08;;;;;;;9.13;4.60;;;15.20;99.00;;;13.42;100.00;99809.41;5009135;28;20065;-87
2021/10/20 05:41:35;;;;;;;10.98;5.07;;;15.20;99.00;;;13.43;100.00;99797.44;5009490;28;20144;-87
2021/10/20 05:44:02;;;;;;;11.48;4.65;;;15.20;98.90;;;13.47;100.00;99782.25;5025582;28;20598;-87
2021/10/20 05:46:29;;;;;;;15.45;5.47;;;15.20;99.00;;;13.46;100.00;99781.44;5010607;28;20498;-87
2021/10/20 05:48:57;;;;;;;13.43;5.50;;;15.20;99.00;;;13.48;100.00;99773.84;5010480;28;20044;-87
2021/10/20 05:51:24;;;;;;;10.75;5.22;;;15.30;99.10;;;13.52;100.00;99770.66;5010661;28;20515;-87
2021/10/20 05:53:51;;;;;;;9.88;4.97;;;15.30;98.80;;;13.54;100.00;99758.44;5025500;28;20155;-88
2021/10/20 05:56:20;;;;;;;12.52;4.95;;;15.30;98.60;;;13.57;100.00;99749.78;5009090;28;20069;-87
2021/10/20 05:58:47;;;;;;;9.85;4.97;;;15.30;98.60;;;13.58;100.00;99747.91;5009870;28;20042;-87
2021/10/20 06:01:15;;;;;;;9.00;5.25;;;15.30;98.70;;;13.60;100.00;99752.09;5010359;28;20088;-86
2021/10/20 06:03:42;;;;;;;11.25;5.15;;;15.30;98.60;;;13.64;100.00;99750.56;5008860;28;20084;-87
2021/10/20 06:06:09;;;;;;;8.90;5.10;;;15.30;98.20;;;13.64;100.00;99734.16;5010327;28;20065;-87
2021/10/20 06:08:37;;;;;;;9.20;4.80;;;15.40;98.60;;;13.66;100.00;99731.22;5025009;28;20054;-87
2021/10/20 06:11:04;;;;;;;13.35;4.78;;;15.40;98.60;;;13.65;100.00;99735.84;5025125;28;20046;-86
2021/10/20 06:13:32;;;;;;;9.88;4.70;;;15.40;98.80;;;13.65;100.00;99724.91;5010102;28;20112;-87
2021/10/20 06:16:00;;;;;;;11.32;5.25;;;15.40;98.30;;;13.68;100.00;99723.63;5010126;28;20052;-87
2021/10/20 06:18:28;;;;;;;11.13;5.00;;;15.40;98.50;;;13.73;100.00;99720.19;5024718;28;20136;-87
2021/10/20 06:20:57;;;;;;;8.57;4.90;;;15.30;98.20;;;13.72;100.00;99716.63;5025028;28;20061;-86
2021/10/20 06:23:24;;;;;;;13.20;5.25;;;15.40;98.50;;;13.72;100.00;99713.06;5009855;28;20042;-87
2021/10/20 06:25:51;;;;;;;9.00;4.70;;;15.40;97.70;;;13.76;100.00;99715.13;5025035;28;20131;-87
2021/10/20 06:28:19;;;;;;;12.90;4.28;;;15.40;98.20;;;13.77;100.00;99711.34;5009562;28;20040;-87
2021/10/20 06:30:47;;;;;;;8.00;4.70;;;15.40;98.20;;;13.81;100.00;99718.03;5008529;28;20124;-87
2021/10/20 06:33:15;;;;;;;8.77;5.07;;;15.50;98.10;;;13.83;100.00;99726.00;5009809;28;20510;-86
2021/10/20 06:35:42;;;;;;;10.88;4.82;;;15.50;98.40;;;13.83;100.00;99715.06;5009777;28;20520;-84
2021/10/20 06:38:09;;;;;;;8.13;4.70;;;15.50;98.30;;;13.83;100.00;99699.50;5009312;28;20042;-87
2021/10/20 06:40:37;;;;;;;8.93;4.68;;;15.50;97.70;;;13.84;100.00;99706.66;5009644;28;20048;-84
2021/10/20 06:43:04;;;;;;;7.88;5.20;;;15.50;98.20;;;13.85;100.00;99712.94;5009613;28;20049;-85
2021/10/20 06:45:31;;;;;;;9.60;5.13;;;15.50;98.00;;;13.85;100.00;99707.47;5008137;28;20050;-84
2021/10/20 06:48:00;;;;;;;7.20;4.68;;;15.60;97.70;;;13.88;100.00;99693.34;5009348;28;20038;-84
2021/10/20 06:50:27;;;;;;;8.40;4.85;;;15.50;97.70;;;13.90;100.00;99688.50;5024619;28;20421;-84
2021/10/20 06:52:55;;;;;;;10.88;4.75;;;15.60;97.90;;;13.92;100.00;99696.44;5009368;28;20540;-83
2021/10/20 06:55:22;;;;;;;9.32;5.30;;;15.60;97.90;;;13.92;100.00;99694.56;5009475;28;20046;-84
2021/10/20 06:57:49;;;;;;;7.80;5.07;;;15.60;97.60;;;13.96;100.00;99682.09;5009128;28;20084;-85
2021/10/20 07:00:17;;;;;;;8.00;4.85;;;15.60;97.60;;;13.98;100.00;99679.16;5009068;28;20117;-85
2021/10/20 07:02:44;;;;;;;11.38;4.60;;;15.60;97.60;;;14.02;100.00;99689.41;5024410;28;20461;-84
2021/10/20 07:05:13;;;;;;;17.70;5.35;;;15.60;97.30;;;14.12;100.00;99702.53;5002036;28;20066;-85
2021/10/20 07:07:40;;;;;;;9.95;4.63;;;15.50;97.50;;;14.21;100.00;99683.94;5008870;28;20123;-85
2021/10/20 07:10:09;;;;;;;8.13;5.10;;;15.60;97.60;;;14.27;100.00;99667.41;5009213;28;20050;-84
2021/10/20 07:12:37;;;;;;;10.45;5.38;;;15.70;97.80;;;14.36;100.00;99681.63;5009239;28;20048;-84
2021/10/20 07:15:06;;;;;;;7.43;4.65;;;15.70;97.70;;;14.43;100.00;99674.19;5007794;28;20216;-85
2021/10/20 07:17:33;;;;;;;10.50;4.88;;;15.80;97.70;;;14.45;100.00;99680.25;5008761;28;20042;-85
2021/10/20 07:20:00;;;;;;;9.85;4.57;;;15.80;97.70;;;14.43;100.00;99687.00;5009226;28;20077;-84
2021/10/20 07:22:29;;;;;;;9.55;4.57;;;15.90;97.40;;;14.41;99.52;99684.53;5008870;28;20041;-84
2021/10/20 07:24:56;;;;;;;12.88;4.80;;;15.90;96.50;;;14.40;99.94;99682.84;5008763;28;20121;-85
2021/10/20 07:27:25;;;;;;;9.27;4.65;;;15.90;97.00;;;14.42;100.00;99688.91;5008992;28;20196;-85
2021/10/20 07:29:52;;;;;;;10.60;5.07;;;15.90;96.80;;;14.43;99.37;99685.13;5009005;28;20104;-84
2021/10/20 07:32:20;;;;;;;8.63;4.88;;;15.90;96.80;;;14.44;98.71;99678.56;5007565;28;20073;-85
2021/10/20 07:34:47;;;;;;;9.90;5.00;;;15.90;96.60;;;14.46;99.35;99684.66;5009081;28;20128;-84
2021/10/20 07:37:14;;;;;;;8.73;5.28;;;15.90;97.00;;;14.50;98.40;99689.69;5008985;28;20560;-85
2021/10/20 07:39:43;;;;;;;9.05;4.60;;;16.00;96.00;;;14.51;99.15;99694.06;5008759;28;20044;-84
2021/10/20 07:42:10;;;;;;;9.88;5.30;;;16.00;96.50;;;14.52;99.33;99685.63;5008999;28;20050;-85
2021/10/20 07:44:37;;;;;;;10.27;5.03;;;16.00;96.40;;;14.54;99.58;99688.97;5008844;28;20121;-84
2021/10/20 07:47:05;;;;;;;9.93;5.45;;;16.00;96.70;;;14.54;100.00;99694.44;5008992;28;20560;-84
2021/10/20 07:49:32;;;;;;;9.88;4.97;;;16.00;96.90;;;14.55;100.00;99687.91;5008750;28;20046;-85
2021/10/20 07:51:59;;;;;;;12.05;5.47;;;16.00;96.80;;;14.63;99.80;99697.75;5007549;28;20149;-84
2021/10/20 07:54:27;;;;;;;10.77;5.40;;;16.00;97.00;;;14.68;99.90;99678.72;5008748;28;20138;-85
2021/10/20 07:56:56;;;;;;;11.63;5.50;;;16.00;96.90;;;14.76;99.71;99681.13;4989302;28;20125;-85
2021/10/20 07:59:23;;;;;;;8.52;5.10;;;16.10;96.90;;;14.81;100.00;99680.41;4999832;28;20100;-85
2021/10/20 08:01:50;;;;;;;12.27;5.03;;;16.20;97.20;;;14.86;99.11;99673.16;5003835;28;20129;-85
2021/10/20 08:04:18;;;;;;;10.35;4.85;;;16.20;96.60;;;14.90;99.21;99659.00;5004630;28;20141;-85
2021/10/20 08:06:45;;;;;;;8.40;5.15;;;16.20;96.90;;;14.94;99.19;99643.78;4989252;28;20137;-84
2021/10/20 08:09:13;;;;;;;8.77;4.97;;;16.20;96.90;;;14.92;99.77;99641.25;5000525;28;20112;-84
2021/10/20 08:11:40;;;;;;;9.48;5.25;;;16.30;97.10;;;14.89;99.46;99638.16;5006154;28;20521;-85
2021/10/20 08:14:09;;;;;;;10.15;5.45;;;16.20;96.70;;;14.84;98.76;99595.88;5010828;28;20830;-84
2021/10/20 08:16:37;;;;;;;8.80;5.20;;;16.20;96.50;;;14.84;99.76;99595.03;5012346;28;20387;-85
2021/10/20 08:19:05;;;;;;;8.45;4.60;;;16.30;96.90;;;14.79;100.00;99605.84;5011973;28;20064;-84
2021/10/20 08:21:32;;;;;;;7.70;5.10;;;16.20;96.80;;;14.77;100.00;99605.25;5012240;28;20112;-85
2021/10/20 08:23:59;;;;;;;9.43;4.97;;;16.30;97.20;;;14.79;100.00;99609.44;5012070;28;20132;-84
2021/10/20 08:26:27;;;;;;;7.80;5.53;;;16.20;97.00;;;14.80;100.00;99580.97;5010649;28;20104;-85
2021/10/20 08:28:54;;;;;;;12.35;5.10;;;16.30;97.30;;;14.83;100.00;99571.44;5010578;28;20141;-84
2021/10/20 08:31:22;;;;;;;12.35;5.50;;;16.30;97.20;;;14.87;100.00;99558.97;5011790;28;20049;-84
2021/10/20 08:33:50;;;;;;;10.63;5.05;;;16.30;97.20;;;14.92;100.00;99558.25;5011839;28;20045;-84
2021/10/20 08:36:17;;;;;;;13.07;5.07;;;16.30;97.30;;;14.95;100.00;99553.13;5011957;28;20046;-85
2021/10/20 08:38:44;;;;;;;9.23;5.15;;;16.40;97.20;;;15.00;100.00;99563.38;5011583;28;20046;-85
2021/10/20 08:41:13;;;;;;;10.15;4.75;;;16.40;97.40;;;15.02;100.00;99561.22;5010306;28;20050;-84
2021/10/20 08:43:42;;;;;;;10.25;5.50;;;16.40;97.00;;;15.05;99.54;99549.78;5011674;28;20064;-85
2021/10/20 08:46:10;;;;;;;9.57;5.72;;;16.40;96.60;;;15.11;99.46;99551.56;5011688;28;20042;-84
2021/10/20 08:48:39;;;;;;;9.40;5.60;;;16.50;96.90;;;15.23;99.63;99521.41;5011450;28;20053;-84
2021/10/20 08:51:07;;;;;;;12.50;5.15;;;16.50;97.00;;;15.32;99.35;99536.44;5011657;28;20316;-85
2021/10/20 08:53:34;;;;;;;10.10;5.45;;;16.60;97.00;;;15.40;98.41;99568.97;5009771;28;20121;-85
2021/10/20 08:56:01;;;;;;;8.32;5.20;;;16.60;96.50;;;15.49;98.93;99574.09;4993633;28;20125;-84
2021/10/20 08:58:28;;;;;;;11.38;5.45;;;16.70;96.90;;;15.63;98.34;99561.78;5005265;28;20066;-85
2021/10/20 09:00:56;;;;;;;9.15;5.38;;;16.70;96.70;;;15.76;98.27;99564.31;5007425;28;20589;-85
2021/10/20 09:03:23;;;;;;;10.27;5.95;;;16.80;96.90;;;15.79;98.40;99569.28;5011164;28;20046;-84
2021/10/20 09:05:57;;;;;;;8.52;5.50;;;16.90;96.90;;;15.79;98.22;99563.00;5011272;28;20045;-85
2021/10/20 09:08:25;;;;;;;11.65;5.45;;;16.90;96.70;;;15.83;98.04;99540.28;5010895;28;20462;-84
2021/10/20 09:10:52;;;;;;;10.23;5.75;;;17.00;96.50;;;15.85;97.45;99529.09;5011383;28;20517;-85
2021/10/20 09:13:21;;;;;;;9.35;4.75;;;17.00;96.10;;;15.96;97.29;99541.09;5009438;28;20577;-84
2021/10/20 09:15:48;;;;;;;12.02;5.32;;;17.00;96.40;;;16.00;97.08;99559.56;5010662;28;20049;-85
2021/10/20 09:18:15;;;;;;;8.52;5.10;;;17.10;96.40;;;15.94;95.81;99538.59;5002802;28;20042;-85
2021/10/20 09:20:46;;;;;;;8.93;5.45;;;17.10;95.60;;;15.87;96.44;99559.03;5002228;28;20521;-85
2021/10/20 09:23:17;;;;;;;9.07;4.93;;;17.10;95.40;;;15.79;96.67;99552.00;5010155;28;20509;-84
2021/10/20 09:25:48;;;;;;;11.45;5.47;;;17.10;95.40;;;15.76;96.92;99536.88;5010953;28;20046;-85
2021/10/20 09:28:23;;;;;;;12.98;5.55;;;17.10;95.50;;;15.81;96.60;99516.94;5009323;28;20050;-85
2021/10/20 09:30:51;;;;;;;9.18;5.18;;;17.10;95.50;;;15.87;97.07;99521.44;5010983;28;20085;-84
2021/10/20 09:33:19;;;;;;;8.10;5.28;;;17.10;95.70;;;15.81;97.30;99501.28;5010731;28;20077;-85
2021/10/20 09:35:47;;;;;;;8.95;5.15;;;17.10;95.80;;;15.69;96.89;99511.47;5009428;28;20072;-85
2021/10/20 09:38:15;;;;;;;7.55;4.88;;;17.10;95.00;;;15.62;96.14;99511.56;5010260;28;20042;-84
2021/10/20 09:40:45;;;;;;;8.13;4.70;;;17.10;94.20;;;15.65;96.67;99488.34;5010731;28;20116;-85
2021/10/20 09:43:16;;;;;;;8.60;5.03;;;17.10;94.80;;;15.69;96.74;99483.16;5010662;28;20038;-84
2021/10/20 09:45:45;;;;;;;8.82;4.82;;;17.10;95.30;;;15.68;95.77;99490.56;5010540;28;20042;-85
2021/10/20 09:48:16;;;;;;;12.52;5.15;;;17.00;94.30;;;15.70;96.55;99499.38;5010281;28;20041;-84
2021/10/20 09:50:57;;;;;;;7.50;4.63;;;17.00;95.00;;;15.74;96.88;99495.09;5010628;28;20534;-84
2021/10/20 09:53:28;;;;;;;9.95;5.22;;;17.10;95.20;;;15.72;95.96;99496.41;5010366;28;20069;-85
2021/10/20 09:55:56;;;;;;;9.63;5.28;;;17.00;95.00;;;15.69;95.76;99496.88;4998287;28;20558;-85
2021/10/20 09:58:24;;;;;;;22.33;5.60;;;17.10;94.40;;;15.69;95.98;99510.59;5000828;28;20038;-85
2021/10/20 10:00:55;;;;;;;9.93;4.65;;;17.10;94.60;;;15.76;96.17;99508.59;4994351;28;20084;-85
2021/10/20 10:03:22;;;;;;;19.23;6.00;;;17.10;94.90;;;15.81;95.77;99500.47;5009033;28;20828;-85
2021/10/20 10:05:50;;;;;;;12.20;4.95;;;17.10;94.80;;;15.88;95.94;99494.81;5010326;28;20052;-85
2021/10/20 10:08:17;;;;;;;9.90;5.68;;;17.10;95.10;;;15.91;95.71;99500.66;5009940;28;20526;-84
2021/10/20 10:10:46;;;;;;;8.48;5.45;;;17.10;95.00;;;15.89;94.38;99497.31;5010084;28;20507;-84
2021/10/20 10:13:20;;;;;;;9.18;5.28;;;17.10;94.00;;;15.89;95.14;99496.50;5010177;28;20064;-84